Time;durP1;ratioP1;P1;durP2;ratioP2;P2;SDS_P1;SDS_P2;PMS_P1;PMS_P2;Temp;Humidity;BMP_temperature;BMP_pressure;BME280_temperature;BME280_humidity;BME280_pressure;Samples;Min_cycle;Max_cycle;Signal;HPM_P1;HPM_P2
2022/01/06 00:01:55;;;;;;;8.50;1.75;;;;;;;5.51;58.43;100387.81;4872511;28;120169;-93
2022/01/06 00:04:23;;;;;;;8.48;3.20;;;;;;;5.80;58.58;100419.84;4859714;28;119398;-92
2022/01/06 00:06:49;;;;;;;9.90;2.20;;;;;;;5.84;58.09;100437.63;4869412;28;120877;-92
2022/01/06 00:09:20;;;;;;;7.05;2.38;;;;;;;5.57;58.25;100398.97;4881999;28;121481;-92
2022/01/06 00:11:47;;;;;;;6.93;2.22;;;;;;;5.67;57.96;100413.50;4885160;28;119174;-91
2022/01/06 00:24:46;;;;;;;9.15;3.97;;;;;;;6.04;58.16;100489.31;4877886;28;123006;-93
2022/01/06 00:27:13;;;;;;;8.50;2.90;;;;;;;5.49;57.78;100406.53;4897745;28;120364;-92
2022/01/06 00:29:42;;;;;;;10.05;3.25;;;;;;;6.02;57.79;100486.25;4885311;28;122008;-94
2022/01/06 00:32:09;;;;;;;12.88;3.13;;;;;;;5.69;58.04;100435.66;4899579;28;118939;-94
2022/01/06 00:34:35;;;;;;;17.55;5.40;;;;;;;5.80;58.22;100458.72;4884110;28;119446;-93
2022/01/06 00:37:01;;;;;;;9.60;3.58;;;;;;;5.72;58.17;100451.91;4884820;28;121055;-94
2022/01/06 00:39:28;;;;;;;27.67;9.68;;;;;;;5.77;58.11;100453.34;4878357;28;120271;-92
2022/01/06 00:42:01;;;;;;;24.00;6.95;;;;;;;6.06;57.74;100499.78;4901049;28;120890;-92
2022/01/06 00:44:27;;;;;;;7.68;3.20;;;;;;;6.00;57.85;100499.53;4906845;28;121768;-93
2022/01/06 00:46:53;;;;;;;11.27;3.40;;;;;;;5.97;57.70;100488.72;4893396;28;120885;-93
2022/01/06 00:49:20;;;;;;;8.70;2.97;;;;;;;6.04;57.65;100500.22;4887958;28;121551;-93
2022/01/06 00:51:48;;;;;;;8.20;2.67;;;;;;;6.04;57.53;100507.63;4894910;28;119032;-93
2022/01/06 00:54:14;;;;;;;7.43;3.08;;;;;;;5.99;57.58;100503.44;4897065;28;119696;-92
2022/01/06 00:56:40;;;;;;;12.07;3.00;;;;;;;5.96;57.64;100504.28;4881280;28;121681;-93
2022/01/06 00:59:06;;;;;;;6.97;3.05;;;;;;;5.80;57.75;100496.06;4868940;28;118571;-93
2022/01/06 01:01:32;;;;;;;8.70;2.85;;;;;;;5.84;58.49;100502.94;4905850;28;119239;-93
2022/01/06 01:03:58;;;;;;;10.77;3.15;;;;;;;5.65;57.85;100478.47;4886537;28;122809;-92
2022/01/06 01:06:24;;;;;;;8.98;3.17;;;;;;;5.55;58.48;100464.69;4897116;28;118557;-92
2022/01/06 01:08:49;;;;;;;7.85;2.28;;;;;;;5.95;58.75;100524.53;4904174;28;119118;-92
2022/01/06 01:11:15;;;;;;;8.10;2.47;;;;;;;5.70;58.67;100480.72;4876657;28;119236;-94
2022/01/06 01:13:55;;;;;;;8.52;2.90;;;;;;;5.82;58.61;100489.00;4876916;28;120891;-92
2022/01/06 01:16:29;;;;;;;7.72;2.65;;;;;;;5.59;58.53;100447.53;4878965;28;121648;-93
2022/01/06 01:18:58;;;;;;;6.30;2.20;;;;;;;6.03;58.44;100515.03;4891140;28;120853;-93
2022/01/06 01:21:26;;;;;;;9.27;2.70;;;;;;;5.77;58.49;100481.34;4888147;28;121946;-93
2022/01/06 01:23:54;;;;;;;8.63;2.78;;;;;;;6.12;58.27;100545.16;4889404;28;121715;-93
2022/01/06 01:26:20;;;;;;;7.93;2.25;;;;;;;6.11;58.17;100551.78;4893291;28;121566;-93
2022/01/06 01:28:46;;;;;;;7.18;2.20;;;;;;;6.02;57.78;100529.81;4878340;28;120747;-94
2022/01/06 01:33:43;;;;;;;9.18;2.60;;;;;;;6.37;56.76;100614.66;4888212;28;120992;-93
2022/01/06 01:36:10;;;;;;;8.70;2.97;;;;;;;6.30;57.09;100625.72;4871785;28;121744;-94
2022/01/06 01:38:37;;;;;;;6.05;2.08;;;;;;;6.34;56.68;100631.84;4872982;28;118408;-92
2022/01/06 01:41:04;;;;;;;7.53;2.10;;;;;;;6.32;57.23;100624.09;4876584;28;120728;-93
2022/01/06 01:43:30;;;;;;;14.35;2.13;;;;;;;5.83;57.58;100557.81;4870197;28;121561;-94
2022/01/06 01:45:58;;;;;;;7.63;1.70;;;;;;;6.26;58.29;100620.34;4903912;28;118786;-94
2022/01/06 01:48:33;;;;;;;8.32;1.90;;;;;;;6.13;58.38;100573.16;4889282;28;118809;-92
2022/01/06 01:50:59;;;;;;;7.63;1.80;;;;;;;6.47;58.99;100619.88;4891377;28;122686;-92
2022/01/06 01:53:25;;;;;;;6.93;1.77;;;;;;;6.51;59.03;100603.44;4875574;28;120933;-94
2022/01/06 01:55:51;;;;;;;4.30;1.65;;;;;;;6.38;59.17;100576.09;4872019;28;121623;-92
2022/01/06 01:58:17;;;;;;;6.95;1.85;;;;;;;6.06;59.27;100532.47;4887858;28;118826;-94
2022/01/06 02:00:42;;;;;;;5.40;1.60;;;;;;;6.47;59.64;100598.09;4882202;28;120434;-94
2022/01/06 02:03:08;;;;;;;6.93;1.85;;;;;;;6.54;59.76;100607.28;4911693;28;120158;-94
2022/01/06 02:05:34;;;;;;;5.30;1.80;;;;;;;6.50;59.71;100599.19;4871994;28;118413;-93
2022/01/06 02:08:00;;;;;;;6.47;1.77;;;;;;;6.50;59.38;100612.06;4889798;28;121372;-94
2022/01/06 02:10:27;;;;;;;11.27;2.08;;;;;;;6.49;59.86;100615.97;4883821;28;121663;-94
2022/01/06 02:12:55;;;;;;;5.25;2.00;;;;;;;6.38;59.79;100608.00;4893307;28;119197;-94
2022/01/06 02:15:21;;;;;;;7.30;1.95;;;;;;;6.47;60.21;100619.88;4904751;28;120469;-93
2022/01/06 02:17:48;;;;;;;4.43;1.67;;;;;;;6.28;59.95;100595.41;4894027;28;120149;-92
2022/01/06 02:20:15;;;;;;;8.20;1.80;;;;;;;6.24;60.00;100590.03;4904652;28;119226;-93
2022/01/06 02:22:42;;;;;;;6.53;2.00;;;;;;;6.13;59.97;100581.31;4872941;28;122038;-91
2022/01/06 02:25:13;;;;;;;8.05;2.05;;;;;;;6.00;59.96;100573.03;4907103;28;118494;-93
2022/01/06 02:27:39;;;;;;;7.25;1.30;;;;;;;6.38;59.86;100644.19;4883805;28;120789;-92
2022/01/06 02:30:06;;;;;;;7.68;1.60;;;;;;;6.38;59.55;100637.97;4878581;28;121703;-94
2022/01/06 02:32:32;;;;;;;7.22;1.50;;;;;;;6.25;59.83;100618.81;4884055;28;119301;-94
2022/01/06 02:35:03;;;;;;;3.85;1.48;;;;;;;6.04;59.93;100592.78;4889878;28;122144;-93
2022/01/06 02:37:32;;;;;;;6.38;1.52;;;;;;;6.20;59.40;100619.31;4885275;28;119152;-93
2022/01/06 02:39:58;;;;;;;5.25;1.88;;;;;;;6.20;59.41;100626.72;4905734;28;119354;-92
2022/01/06 02:42:24;;;;;;;9.13;1.88;;;;;;;6.21;59.56;100630.97;4909190;28;119868;-92
2022/01/06 02:44:50;;;;;;;5.22;1.73;;;;;;;6.15;59.96;100627.97;4878471;28;119083;-92
2022/01/06 02:47:15;;;;;;;8.68;1.73;;;;;;;6.03;60.00;100623.94;4883898;28;119278;-92
2022/01/06 02:49:41;;;;;;;11.95;2.05;;;;;;;5.76;59.86;100591.38;4898745;28;119700;-93
2022/01/06 02:52:07;;;;;;;7.25;1.70;;;;;;;6.01;59.80;100626.31;4867937;28;118998;-92
2022/01/06 02:54:32;;;;;;;5.78;1.80;;;;;;;6.03;60.23;100640.28;4874161;28;120598;-94
2022/01/06 02:56:58;;;;;;;4.75;1.52;;;;;;;5.93;59.78;100635.06;4887141;28;118488;-94
2022/01/06 02:59:26;;;;;;;7.75;1.55;;;;;;;6.02;60.16;100655.06;4876575;28;120754;-94
2022/01/06 03:01:52;;;;;;;6.32;1.60;;;;;;;5.88;60.39;100638.97;4887867;28;121623;-93
2022/01/06 03:04:19;;;;;;;7.55;1.80;;;;;;;5.76;60.31;100618.59;4894854;28;118465;-93
2022/01/06 03:06:44;;;;;;;5.28;1.88;;;;;;;5.94;60.01;100647.47;4885140;28;121979;-93
2022/01/06 03:09:11;;;;;;;7.35;1.80;;;;;;;6.01;60.82;100661.72;4897855;28;120188;-93
2022/01/06 03:11:41;;;;;;;5.63;1.88;;;;;;;6.07;60.25;100673.63;4868943;28;118999;-93
2022/01/06 03:14:07;;;;;;;6.82;1.85;;;;;;;6.01;60.46;100658.97;4887519;28;120984;-94
2022/01/06 03:16:36;;;;;;;11.40;2.35;;;;;;;6.04;60.19;100669.03;4888191;28;122523;-94
2022/01/06 03:19:02;;;;;;;9.63;1.80;;;;;;;5.90;60.49;100650.25;4893523;28;119346;-94
2022/01/06 03:21:28;;;;;;;6.80;1.80;;;;;;;5.97;60.75;100669.19;4885337;28;121573;-92
2022/01/06 03:23:53;;;;;;;7.68;1.83;;;;;;;5.93;60.42;100673.94;4899469;28;119427;-93
2022/01/06 03:26:19;;;;;;;5.88;1.77;;;;;;;5.75;59.98;100663.34;4887420;28;120337;-93
2022/01/06 03:28:45;;;;;;;7.28;1.77;;;;;;;5.79;59.90;100674.16;4869094;28;121931;-93
2022/01/06 03:31:10;;;;;;;9.43;2.15;;;;;;;5.80;60.12;100676.47;4889210;28;118471;-94
2022/01/06 03:33:36;;;;;;;8.20;2.20;;;;;;;5.38;60.29;100626.28;4886307;28;122616;-92
2022/01/06 03:36:04;;;;;;;6.43;1.73;;;;;;;5.68;59.94;100679.00;4883492;28;121793;-94
2022/01/06 03:38:30;;;;;;;9.05;1.70;;;;;;;5.71;60.28;100694.53;4901970;28;119277;-92
2022/01/06 03:40:56;;;;;;;7.53;2.33;;;;;;;5.66;60.20;100692.28;4874452;28;121556;-92
2022/01/06 03:43:21;;;;;;;10.10;2.22;;;;;;;5.69;59.83;100700.41;4899707;28;119272;-92
2022/01/06 03:45:47;;;;;;;8.90;2.05;;;;;;;5.71;59.72;100711.63;4890161;28;119444;-94
2022/01/06 03:48:12;;;;;;;6.28;2.13;;;;;;;5.67;59.86;100710.13;4864817;28;121744;-92
2022/01/06 03:50:41;;;;;;;6.07;1.60;;;;;;;5.44;59.56;100681.78;4909686;28;119521;-92
2022/01/06 03:53:07;;;;;;;7.78;1.83;;;;;;;5.45;60.07;100699.63;4889635;28;121125;-92
2022/01/06 03:55:37;;;;;;;7.03;1.95;;;;;;;5.37;59.92;100697.44;4901445;28;121688;-94
2022/01/06 03:58:03;;;;;;;6.25;2.15;;;;;;;5.49;59.81;100730.28;4874798;28;118488;-94
2022/01/06 04:00:28;;;;;;;10.05;2.17;;;;;;;5.52;59.71;100736.84;4881279;28;120817;-94
2022/01/06 04:02:54;;;;;;;9.98;2.10;;;;;;;5.35;59.78;100725.03;4882283;28;118634;-92
2022/01/06 04:05:20;;;;;;;5.65;2.00;;;;;;;5.50;60.01;100753.56;4899188;28;122010;-92
2022/01/06 04:07:46;;;;;;;7.65;1.88;;;;;;;5.40;59.97;100745.56;4909062;28;120139;-92
2022/01/06 04:10:12;;;;;;;9.38;2.00;;;;;;;5.47;60.19;100751.69;4898382;28;118596;-92
2022/01/06 04:12:40;;;;;;;5.65;1.77;;;;;;;5.10;60.23;100711.84;4888619;28;120626;-92
2022/01/06 04:15:10;;;;;;;6.05;1.73;;;;;;;5.38;59.68;100756.09;4881489;28;121628;-93
2022/01/06 04:17:42;;;;;;;4.90;1.83;;;;;;;5.04;59.26;100715.44;4867786;28;118391;-93
2022/01/06 04:20:12;;;;;;;8.23;1.95;;;;;;;5.31;59.83;100765.13;4889861;28;121165;-93
2022/01/06 04:22:38;;;;;;;7.60;2.00;;;;;;;5.33;59.08;100776.38;4892504;28;122678;-94
2022/01/06 04:25:05;;;;;;;5.18;2.25;;;;;;;5.27;59.36;100779.97;4872255;28;120406;-93
2022/01/06 04:27:32;;;;;;;6.28;1.90;;;;;;;5.11;59.41;100775.91;4896558;28;121661;-94
2022/01/06 04:29:57;;;;;;;6.63;2.05;;;;;;;5.15;59.59;100786.72;4888513;28;118858;-93
2022/01/06 04:32:23;;;;;;;6.38;1.98;;;;;;;4.97;59.17;100762.53;4908621;28;121325;-93
2022/01/06 04:34:51;;;;;;;5.93;2.17;;;;;;;4.63;59.47;100727.25;4885417;28;122711;-92
2022/01/06 04:37:17;;;;;;;5.15;1.70;;;;;;;4.83;59.61;100765.44;4868841;28;119148;-93
2022/01/06 04:39:43;;;;;;;3.28;1.70;;;;;;;5.01;59.29;100806.75;4876275;28;122245;-92
2022/01/06 04:42:11;;;;;;;9.45;1.88;;;;;;;5.05;59.38;100809.41;4910722;28;119828;-91
2022/01/06 04:44:36;;;;;;;5.97;1.70;;;;;;;5.02;59.10;100810.22;4896299;28;118976;-90
2022/01/06 04:47:02;;;;;;;6.75;2.17;;;;;;;4.72;59.56;100773.69;4894273;28;118995;-92
2022/01/06 04:49:28;;;;;;;6.68;2.00;;;;;;;5.00;59.68;100815.31;4863527;28;119159;-93
2022/01/06 04:51:56;;;;;;;7.03;1.80;;;;;;;4.78;59.12;100793.84;4878519;28;120774;-91
2022/01/06 04:54:25;;;;;;;4.18;1.80;;;;;;;4.58;59.36;100766.50;4874815;28;121758;-92
2022/01/06 04:56:50;;;;;;;5.68;1.65;;;;;;;4.86;59.52;100833.31;4908674;28;118532;-92
2022/01/06 04:59:16;;;;;;;5.47;2.00;;;;;;;4.80;59.11;100823.31;4899895;28;121721;-91
2022/01/06 05:01:42;;;;;;;6.15;1.90;;;;;;;4.87;59.33;100839.53;4910081;28;119255;-91
2022/01/06 05:04:10;;;;;;;7.90;2.50;;;;;;;4.62;59.66;100815.38;4901668;28;118516;-92
2022/01/06 05:06:35;;;;;;;6.65;2.20;;;;;;;4.82;59.88;100848.91;4896997;28;121180;-91
2022/01/06 05:09:02;;;;;;;5.13;2.33;;;;;;;4.53;59.52;100812.38;4905262;28;118961;-91
2022/01/06 05:11:30;;;;;;;6.43;2.25;;;;;;;4.62;59.56;100837.09;4916595;28;118967;-91
2022/01/06 05:13:56;;;;;;;5.80;1.98;;;;;;;4.58;60.02;100839.09;4892905;28;119366;-91
2022/01/06 05:16:22;;;;;;;5.15;2.30;;;;;;;4.69;60.01;100852.56;4901506;28;118406;-90
2022/01/06 05:18:48;;;;;;;8.63;2.40;;;;;;;4.77;59.80;100873.81;4900941;28;119045;-91
2022/01/06 05:21:14;;;;;;;6.53;2.30;;;;;;;4.75;59.50;100875.41;4911486;28;121719;-91
2022/01/06 05:23:40;;;;;;;7.40;2.15;;;;;;;4.68;59.59;100865.38;4899638;28;118520;-92
2022/01/06 05:26:07;;;;;;;8.38;2.50;;;;;;;4.72;60.34;100876.97;4889435;28;121801;-90
2022/01/06 05:28:33;;;;;;;12.45;2.22;;;;;;;4.73;59.52;100873.09;4894503;28;119048;-91
2022/01/06 05:31:03;;;;;;;4.40;2.13;;;;;;;4.20;59.49;100809.22;4897300;28;122386;-93
2022/01/06 05:33:29;;;;;;;7.50;1.88;;;;;;;4.36;58.88;100838.53;4879492;28;121380;-92
2022/01/06 05:35:55;;;;;;;7.13;2.08;;;;;;;4.66;58.84;100892.19;4881516;28;119837;-93
2022/01/06 05:38:21;;;;;;;5.55;2.00;;;;;;;4.27;58.76;100849.91;4898725;28;119282;-93
2022/01/06 05:40:48;;;;;;;10.70;2.47;;;;;;;4.24;59.13;100842.53;4922485;28;118901;-93
2022/01/06 05:43:14;;;;;;;6.13;2.20;;;;;;;4.32;59.23;100867.69;4888177;28;118946;-91
2022/01/06 05:45:42;;;;;;;7.07;2.28;;;;;;;4.34;59.07;100875.44;4903149;28;118728;-92
2022/01/06 05:48:11;;;;;;;6.88;2.30;;;;;;;4.35;59.28;100872.31;4908527;28;122034;-92
2022/01/06 05:50:42;;;;;;;6.57;2.80;;;;;;;4.38;59.22;100879.66;4900214;28;120789;-91
2022/01/06 05:53:11;;;;;;;8.60;2.72;;;;;;;4.15;59.08;100849.59;4903115;28;121806;-91
2022/01/06 05:55:36;;;;;;;8.68;2.55;;;;;;;4.16;59.35;100853.88;4903827;28;118496;-90
2022/01/06 05:58:05;;;;;;;6.40;2.60;;;;;;;3.94;59.07;100823.41;4890303;28;120858;-91
2022/01/06 06:00:31;;;;;;;6.63;2.13;;;;;;;4.10;59.11;100860.91;4903278;28;121702;-91
2022/01/06 06:02:56;;;;;;;5.45;2.13;;;;;;;4.37;59.06;100904.50;4901904;28;119441;-92
2022/01/06 06:05:22;;;;;;;5.93;2.72;;;;;;;4.06;59.01;100860.94;4881552;28;120735;-90
2022/01/06 06:07:47;;;;;;;8.73;2.65;;;;;;;4.04;59.30;100855.16;4897429;28;119361;-91
2022/01/06 06:10:13;;;;;;;8.32;2.72;;;;;;;4.39;59.04;100919.22;4938020;28;118418;-92
2022/01/06 06:12:39;;;;;;;6.20;2.40;;;;;;;3.81;59.00;100825.09;4882520;28;121513;-93
2022/01/06 06:15:05;;;;;;;8.25;2.75;;;;;;;3.96;58.48;100859.06;4885337;28;118486;-93
2022/01/06 06:17:30;;;;;;;8.68;2.72;;;;;;;3.74;58.54;100836.75;4919974;28;120413;-91
2022/01/06 06:19:56;;;;;;;9.13;2.75;;;;;;;4.07;57.95;100902.44;4892222;28;121195;-91
2022/01/06 06:22:22;;;;;;;7.65;2.72;;;;;;;3.83;58.45;100882.44;4883355;28;118490;-91
2022/01/06 06:24:50;;;;;;;8.77;2.83;;;;;;;4.03;58.79;100913.31;4893709;28;121815;-92
2022/01/06 06:27:16;;;;;;;8.18;2.53;;;;;;;4.08;59.03;100926.47;4918095;28;119316;-90
2022/01/06 06:29:42;;;;;;;6.32;2.70;;;;;;;3.95;59.04;100914.53;4903766;28;119035;-91
2022/01/06 06:32:07;;;;;;;7.72;3.17;;;;;;;3.81;59.01;100896.41;4903036;28;119247;-92
2022/01/06 06:34:34;;;;;;;7.00;2.50;;;;;;;3.55;58.90;100862.50;4907399;28;119708;-91
2022/01/06 06:40:50;;;;;;;7.68;2.90;;;;;;;4.11;59.32;100963.66;4902762;28;121711;-93
2022/01/06 06:43:15;;;;;;;11.38;3.38;;;;;;;4.06;59.49;100953.25;4902566;28;118528;-92
2022/01/06 06:45:42;;;;;;;9.90;3.38;;;;;;;3.66;59.34;100884.09;4887866;28;120717;-92
2022/01/06 06:48:08;;;;;;;9.45;3.22;;;;;;;3.92;58.84;100928.91;4884133;28;122753;-92
2022/01/06 06:50:34;;;;;;;10.35;3.40;;;;;;;3.88;58.93;100928.16;4935831;28;118440;-91
2022/01/06 06:53:02;;;;;;;11.77;3.47;;;;;;;3.63;58.64;100893.81;4892554;28;120916;-91
2022/01/06 06:55:29;;;;;;;9.70;3.50;;;;;;;3.50;58.74;100881.88;4895528;28;119185;-92
2022/01/06 06:57:54;;;;;;;11.20;3.65;;;;;;;3.66;59.01;100906.59;4887352;28;120793;-93
2022/01/06 07:00:20;;;;;;;10.05;3.20;;;;;;;3.58;58.99;100898.91;4894614;28;122915;-92
2022/01/06 07:02:46;;;;;;;8.13;3.80;;;;;;;3.95;59.34;100971.53;4926851;28;119634;-91
2022/01/06 07:05:12;;;;;;;9.38;3.00;;;;;;;4.07;58.99;100979.22;4904008;28;119347;-92
2022/01/06 07:07:38;;;;;;;11.20;3.83;;;;;;;4.06;58.83;100991.25;4887049;28;122564;-92
2022/01/06 07:10:07;;;;;;;7.47;3.33;;;;;;;3.95;58.46;100985.09;4888734;28;119165;-92
2022/01/06 07:12:41;;;;;;;9.18;3.10;;;;;;;3.75;58.61;100956.91;4877939;28;122054;-90
2022/01/06 07:15:09;;;;;;;8.30;3.53;;;;;;;3.71;58.59;100967.78;4901722;28;121861;-91
2022/01/06 07:17:35;;;;;;;5.95;3.15;;;;;;;3.67;59.04;100961.63;4887881;28;121828;-92
2022/01/06 07:20:01;;;;;;;7.50;3.00;;;;;;;3.45;58.55;100930.34;4899302;28;121640;-95
2022/01/06 07:22:27;;;;;;;7.75;3.45;;;;;;;3.65;58.81;100975.56;4894552;28;118571;-93
2022/01/06 07:24:53;;;;;;;9.13;3.28;;;;;;;3.69;58.35;100981.75;4887761;28;120671;-92
2022/01/06 07:27:18;;;;;;;7.47;3.35;;;;;;;3.94;58.41;101024.25;4903591;28;121560;-91
2022/01/06 07:29:44;;;;;;;11.75;4.00;;;;;;;3.53;58.36;100972.53;4898687;28;119553;-91
2022/01/06 07:32:10;;;;;;;8.85;4.43;;;;;;;3.92;58.83;101040.16;4920870;28;119782;-92
2022/01/06 07:34:36;;;;;;;11.13;3.90;;;;;;;3.31;58.12;100950.94;4886778;28;121586;-91
2022/01/06 07:37:05;;;;;;;8.75;3.90;;;;;;;3.91;58.62;101052.19;4879020;28;118857;-92
2022/01/06 07:39:31;;;;;;;8.23;3.33;;;;;;;3.74;59.35;101031.34;4888234;28;121675;-91
2022/01/06 07:41:58;;;;;;;10.40;3.85;;;;;;;3.53;59.52;101005.84;4903547;28;118416;-93
2022/01/06 07:44:24;;;;;;;12.02;4.03;;;;;;;3.55;59.44;101005.44;4884761;28;120894;-92
2022/01/06 07:46:50;;;;;;;11.25;3.78;;;;;;;3.83;59.53;101046.03;4901966;28;120237;-91
2022/01/06 07:49:16;;;;;;;10.70;3.63;;;;;;;3.65;59.34;101018.97;4888753;28;118420;-92
2022/01/06 07:52:11;;;;;;;12.77;4.03;;;;;;;4.08;60.06;101073.06;4889009;28;120944;-93
2022/01/06 07:54:37;;;;;;;11.32;3.20;;;;;;;3.46;59.87;100992.31;4909632;28;120184;-93
2022/01/06 07:57:05;;;;;;;7.93;2.97;;;;;;;4.11;59.99;101085.84;4893082;28;118521;-90
2022/01/06 07:59:31;;;;;;;7.07;2.72;;;;;;;4.06;59.80;101080.81;4923304;28;119533;-92
2022/01/06 08:01:57;;;;;;;12.85;3.67;;;;;;;3.87;59.63;101052.22;4908280;28;118562;-91
2022/01/06 08:04:22;;;;;;;13.25;4.65;;;;;;;4.18;59.71;101093.94;4897519;28;120620;-93
2022/01/06 08:06:51;;;;;;;16.75;7.70;;;;;;;4.20;59.39;101099.75;4882929;28;121661;-92
2022/01/06 08:09:19;;;;;;;15.60;7.70;;;;;;;4.17;59.35;101086.19;4904104;28;118465;-93
2022/01/06 08:16:07;;;;;;;19.67;8.43;;;;;;;3.87;59.55;101056.88;4919226;28;118850;-90
2022/01/06 08:18:32;;;;;;;18.80;7.78;;;;;;;3.83;59.64;101034.41;4917141;28;119584;-91
2022/01/06 08:20:58;;;;;;;14.80;6.40;;;;;;;4.04;59.62;101075.03;4894975;28;120849;-91
2022/01/06 08:23:27;;;;;;;12.82;5.15;;;;;;;4.22;59.33;101100.13;4904054;28;120316;-89
2022/01/06 08:25:53;;;;;;;9.55;4.60;;;;;;;4.16;59.05;101095.50;4874562;28;120747;-91
2022/01/06 08:28:19;;;;;;;10.63;5.00;;;;;;;3.84;59.29;101057.66;4892917;28;121667;-92
2022/01/06 08:30:47;;;;;;;11.73;5.18;;;;;;;4.16;59.00;101101.72;4901668;28;119040;-90
2022/01/06 08:33:15;;;;;;;15.93;4.80;;;;;;;4.21;58.87;101104.00;4899637;28;120725;-91
2022/01/06 08:35:44;;;;;;;14.32;4.35;;;;;;;4.11;58.89;101104.84;4903763;28;120363;-93
2022/01/06 08:38:12;;;;;;;11.77;4.78;;;;;;;3.91;59.22;101071.19;4915314;28;119106;-91
2022/01/06 08:40:38;;;;;;;14.07;5.15;;;;;;;3.95;59.55;101078.16;4888454;28;120276;-92
2022/01/06 08:43:04;;;;;;;10.30;5.60;;;;;;;3.82;59.06;101060.78;4883700;28;121448;-92
2022/01/06 08:45:32;;;;;;;13.75;6.53;;;;;;;4.19;59.21;101119.91;4888782;28;119145;-92
2022/01/06 08:47:58;;;;;;;12.38;6.32;;;;;;;4.13;59.27;101116.06;4909322;28;121647;-92
2022/01/06 08:50:25;;;;;;;14.60;6.43;;;;;;;4.10;59.37;101111.44;4896859;28;119792;-91
2022/01/06 08:52:51;;;;;;;14.68;6.93;;;;;;;4.25;59.15;101133.84;4908420;28;118917;-93
2022/01/06 08:55:20;;;;;;;14.85;6.82;;;;;;;3.99;59.66;101091.69;4879510;28;121751;-90
2022/01/06 08:57:45;;;;;;;21.13;11.40;;;;;;;4.40;59.17;101148.13;4899495;28;118562;-91
2022/01/06 09:00:11;;;;;;;60.22;35.20;;;;;;;3.89;59.36;101071.59;4886063;28;120901;-91
2022/01/06 09:02:38;;;;;;;67.57;33.10;;;;;;;4.19;59.59;101103.63;4881178;28;121344;-91
2022/01/06 09:05:06;;;;;;;45.00;23.50;;;;;;;4.34;59.53;101117.13;4906198;28;118484;-92
2022/01/06 09:07:34;;;;;;;27.88;16.40;;;;;;;4.48;59.66;101141.50;4878740;28;121118;-91
2022/01/06 09:09:59;;;;;;;54.85;31.92;;;;;;;4.47;59.58;101129.06;4903314;28;118802;-92
2022/01/06 09:12:25;;;;;;;54.35;30.90;;;;;;;4.42;59.75;101119.41;4890269;28;120970;-89
2022/01/06 09:14:51;;;;;;;49.63;29.33;;;;;;;4.55;59.86;101138.75;4914809;28;122886;-91
2022/01/06 09:17:17;;;;;;;38.60;23.02;;;;;;;4.51;60.22;101122.47;4895168;28;119208;-91
2022/01/06 09:19:43;;;;;;;23.65;13.35;;;;;;;4.59;60.01;101125.91;4889619;28;120858;-93
2022/01/06 09:22:08;;;;;;;24.17;13.15;;;;;;;4.72;60.32;101142.50;4898608;28;121700;-91
2022/01/06 09:24:34;;;;;;;26.23;13.77;;;;;;;4.61;59.92;101129.78;4883349;28;119043;-90
2022/01/06 09:27:06;;;;;;;19.98;10.18;;;;;;;4.83;60.13;101154.09;4903055;28;120923;-92
2022/01/06 09:29:31;;;;;;;14.02;7.43;;;;;;;4.55;59.92;101108.88;4901664;28;118380;-91
2022/01/06 09:31:57;;;;;;;11.07;6.65;;;;;;;4.89;60.05;101166.84;4884651;28;120820;-91
2022/01/06 09:34:23;;;;;;;27.75;13.45;;;;;;;4.85;60.25;101154.47;4880929;28;121503;-92
2022/01/06 09:36:49;;;;;;;19.90;11.82;;;;;;;4.70;59.99;101123.88;4905915;28;118917;-90
2022/01/06 09:39:14;;;;;;;21.83;10.55;;;;;;;4.79;60.11;101126.94;4883562;28;120606;-92
2022/01/06 09:41:44;;;;;;;20.77;9.60;;;;;;;5.06;60.24;101158.97;4897959;28;122063;-91
2022/01/06 09:44:10;;;;;;;18.95;9.85;;;;;;;4.88;60.42;101123.75;4875933;28;119017;-91
2022/01/06 09:46:36;;;;;;;17.98;9.77;;;;;;;5.17;60.99;101151.50;4915046;28;118650;-91
2022/01/06 09:49:02;;;;;;;16.60;7.63;;;;;;;5.22;61.08;101154.56;4876447;28;121329;-92
2022/01/06 09:51:28;;;;;;;11.85;6.43;;;;;;;5.06;61.08;101118.19;4890841;28;120361;-91
2022/01/06 09:53:58;;;;;;;10.63;5.60;;;;;;;4.90;60.90;101081.41;4883346;28;121695;-93
2022/01/06 09:56:26;;;;;;;14.02;5.72;;;;;;;4.90;61.25;101073.25;4883639;28;118972;-91
2022/01/06 09:58:52;;;;;;;10.82;5.47;;;;;;;5.34;61.13;101136.19;4900626;28;120782;-93
2022/01/06 10:01:17;;;;;;;11.35;5.63;;;;;;;5.28;61.19;101119.56;4891557;28;121750;-91
2022/01/06 10:03:48;;;;;;;14.25;6.20;;;;;;;5.30;61.49;101113.69;4909039;28;118664;-90
2022/01/06 10:06:18;;;;;;;13.10;6.03;;;;;;;5.63;61.08;101161.94;4877234;28;121069;-91
2022/01/06 10:08:59;;;;;;;12.23;5.80;;;;;;;5.69;61.46;101157.63;4876637;28;121994;-91
2022/01/06 10:11:27;;;;;;;12.38;5.35;;;;;;;5.72;61.51;101151.38;4871550;28;118437;-92
2022/01/06 10:14:17;;;;;;;15.95;4.82;;;;;;;5.78;61.90;101155.19;4888211;28;121647;-91
2022/01/06 10:16:50;;;;;;;9.07;3.75;;;;;;;5.74;61.69;101151.75;4879300;28;118481;-92
2022/01/06 10:19:16;;;;;;;11.00;3.67;;;;;;;5.74;61.34;101140.09;4871956;28;120842;-92
2022/01/06 10:21:52;;;;;;;13.15;3.72;;;;;;;5.91;61.38;101160.91;4859413;28;121996;-92
2022/01/06 10:24:21;;;;;;;8.98;3.20;;;;;;;5.95;61.39;101160.88;4879304;28;119669;-92
2022/01/06 10:27:07;;;;;;;11.40;3.33;;;;;;;6.01;61.57;101159.25;4867840;28;120964;-94
2022/01/06 10:29:36;;;;;;;8.32;3.70;;;;;;;6.01;61.36;101149.13;4884420;28;122678;-94
2022/01/06 10:32:11;;;;;;;15.10;3.90;;;;;;;6.12;61.43;101162.59;4874472;28;119926;-92
2022/01/06 10:34:40;;;;;;;11.50;3.55;;;;;;;6.14;61.50;101157.53;4876980;28;121397;-93
2022/01/06 10:37:39;;;;;;;11.20;3.22;;;;;;;6.17;61.19;101161.41;4877637;28;119218;-92
2022/01/06 10:40:10;;;;;;;9.50;3.80;;;;;;;6.19;61.04;101164.50;4878035;28;119366;-94
2022/01/06 10:42:39;;;;;;;9.57;3.85;;;;;;;6.11;60.96;101147.44;4880920;28;121971;-92
2022/01/06 10:45:12;;;;;;;9.25;3.70;;;;;;;6.24;61.12;101162.09;4866360;28;119443;-94
2022/01/06 10:47:43;;;;;;;7.88;3.65;;;;;;;6.23;61.25;101143.44;4883700;28;121182;-93
2022/01/06 10:50:19;;;;;;;11.73;4.15;;;;;;;6.31;61.44;101161.22;4872064;28;121725;-93
2022/01/06 10:52:50;;;;;;;10.65;4.18;;;;;;;6.03;61.15;101108.66;4868078;28;119209;-93
2022/01/06 10:55:21;;;;;;;10.15;4.00;;;;;;;6.37;61.10;101165.78;4882911;28;122092;-93
2022/01/06 10:57:59;;;;;;;10.93;4.22;;;;;;;6.44;61.06;101171.16;4870420;28;121615;-92
2022/01/06 11:00:35;;;;;;;11.40;4.60;;;;;;;6.47;60.79;101166.84;4884357;28;121089;-92
2022/01/06 11:03:25;;;;;;;10.18;4.32;;;;;;;6.49;60.54;101161.75;4882779;28;123197;-91
2022/01/06 11:05:56;;;;;;;12.18;5.10;;;;;;;6.47;60.71;101158.66;4875096;28;119457;-92
2022/01/06 11:08:28;;;;;;;11.18;4.15;;;;;;;6.56;60.53;101167.09;4896630;28;120935;-94
2022/01/06 11:13:39;;;;;;;10.70;3.95;;;;;;;6.42;59.61;101138.09;4876281;28;118848;-93
2022/01/06 11:16:06;;;;;;;12.07;3.10;;;;;;;6.66;59.10;101160.75;4922553;28;119388;-94
2022/01/06 11:18:33;;;;;;;9.90;2.45;;;;;;;6.68;58.76;101160.34;4906700;28;120372;-95
2022/01/06 11:21:13;;;;;;;6.07;2.58;;;;;;;6.54;59.04;101139.47;4897746;28;118506;-91
2022/01/06 11:23:40;;;;;;;8.02;2.60;;;;;;;6.70;59.24;101158.72;4866908;28;121930;-93
2022/01/06 11:26:12;;;;;;;10.77;2.88;;;;;;;6.74;59.42;101156.72;4882925;28;119233;-93
2022/01/06 11:28:39;;;;;;;7.18;2.83;;;;;;;6.53;59.63;101129.78;4880922;28;119793;-94
2022/01/06 11:31:16;;;;;;;10.88;3.40;;;;;;;6.63;58.92;101134.31;4887198;28;119328;-94
2022/01/06 11:33:44;;;;;;;7.22;3.25;;;;;;;6.90;58.61;101163.50;4876140;28;119242;-92
2022/01/06 11:36:24;;;;;;;10.13;3.78;;;;;;;6.77;58.12;101142.25;4871446;28;120960;-94
2022/01/06 11:38:51;;;;;;;11.23;3.55;;;;;;;6.82;58.13;101142.97;4895209;28;120721;-93
2022/01/06 11:41:18;;;;;;;9.60;3.30;;;;;;;6.99;58.54;101156.34;4869669;28;118476;-93
2022/01/06 11:43:46;;;;;;;11.20;3.72;;;;;;;7.09;58.64;101171.00;4899285;28;120241;-94
2022/01/06 11:46:13;;;;;;;7.93;3.47;;;;;;;7.15;58.39;101169.34;4897245;28;119925;-92
2022/01/06 11:48:45;;;;;;;10.63;3.58;;;;;;;7.26;58.65;101174.63;4875503;28;120744;-93